Terminal Aerodrome Forecast
Issued by NWS

Home | Current Version | Previous Version | Graphics & Text | Print | Product List | Glossary On
Versions: 1 2 3 4 5 6 7 8 9 10 11 12 13 14 15 16 17 18 19 20 21
219
FTUS43 KICT 220522
TAFHUT
TAF
KHUT 220522Z 2206/2306 13012KT P6SM BKN030
     FM220900 12010KT P6SM OVC020
     FM221700 16017G24KT P6SM BKN035=

USA.gov is the U.S. government's official web portal to all federal, state and local government web resources and services.